createdAt,value
2019-04-20T00:00:56.527Z,34.63
2019-04-20T00:03:34.403Z,37.97
2019-04-20T00:05:59.341Z,34.80
2019-04-20T00:08:33.208Z,31.53
2019-04-20T00:11:08.101Z,33.87
2019-04-20T00:13:46.994Z,32.47
2019-04-20T00:16:06.274Z,36.87
2019-04-20T00:18:43.178Z,37.23
2019-04-20T00:21:26.924Z,31.80
2019-04-20T00:24:01.977Z,37.13
2019-04-20T00:27:04.694Z,32.23
2019-04-20T00:29:25.368Z,31.37
2019-04-20T00:31:50.389Z,37.07
2019-04-20T00:34:20.334Z,34.27
2019-04-20T00:36:43.328Z,31.43
2019-04-20T00:39:16.426Z,30.97
2019-04-20T00:41:53.107Z,30.27
2019-04-20T00:44:23.370Z,33.70
2019-04-20T00:47:01.876Z,30.93
2019-04-20T00:49:34.540Z,31.37
2019-04-20T00:52:19.157Z,29.73
2019-04-20T00:54:24.627Z,31.67
2019-04-20T00:57:05.793Z,31.30
2019-04-20T00:59:43.100Z,30.67
2019-04-20T01:02:14.051Z,32.63
2019-04-20T01:04:55.041Z,29.20
2019-04-20T01:07:39.533Z,35.33
2019-04-20T01:10:06.963Z,33.07
2019-04-20T01:12:40.254Z,34.70
2019-04-20T01:15:11.838Z,30.97
2019-04-20T01:17:42.931Z,33.80
2019-04-20T01:20:14.916Z,34.73
2019-04-20T01:22:53.756Z,33.43
2019-04-20T01:25:23.098Z,31.23
2019-04-20T01:28:07.743Z,31.80
2019-04-20T01:30:28.398Z,32.73
2019-04-20T01:33:06.218Z,32.33
2019-04-20T01:35:40.860Z,35.47
2019-04-20T01:38:11.336Z,34.70
2019-04-20T01:40:27.477Z,32.87
2019-04-20T01:42:57.350Z,36.47
2019-04-20T01:45:32.840Z,30.30
2019-04-20T01:48:01.773Z,30.40
2019-04-20T01:50:35.286Z,29.17
2019-04-20T01:53:12.546Z,28.83
2019-04-20T01:55:51.079Z,32.10
2019-04-20T01:58:30.879Z,32.77
2019-04-20T02:01:00.750Z,30.30
2019-04-20T02:03:55.486Z,30.07
2019-04-20T02:06:26.778Z,32.13
2019-04-20T02:09:03.382Z,31.57
2019-04-20T02:11:34.250Z,30.90
2019-04-20T02:14:03.769Z,30.63
2019-04-20T02:16:38.763Z,30.50
2019-04-20T02:19:19.590Z,30.33
2019-04-20T02:21:51.778Z,27.60
2019-04-20T02:24:09.630Z,28.80
2019-04-20T02:26:39.403Z,30.80
2019-04-20T02:29:36.034Z,28.83
2019-04-20T02:32:18.146Z,28.60
2019-04-20T02:38:12.153Z,30.93
2019-04-20T02:40:43.037Z,29.63
2019-04-20T02:45:33.356Z,31.13
2019-04-20T02:48:02.842Z,33.07
2019-04-20T02:55:45.991Z,30.63
2019-04-20T02:58:07.848Z,32.07
2019-04-20T03:00:35.182Z,30.90
2019-04-20T03:02:53.687Z,38.40
2019-04-20T03:05:28.214Z,30.47
2019-04-20T03:08:02.588Z,27.83
2019-04-20T03:10:50.788Z,30.00
2019-04-20T03:13:15.894Z,27.30
2019-04-20T03:15:46.657Z,29.07
2019-04-20T03:18:13.642Z,33.53
2019-04-20T03:20:46.213Z,27.40
2019-04-20T03:26:01.225Z,26.67
2019-04-20T03:28:44.173Z,30.43
2019-04-20T03:31:41.193Z,29.63
2019-04-20T03:34:23.245Z,34.97
2019-04-20T03:36:35.202Z,27.90
2019-04-20T03:38:57.487Z,31.20
2019-04-20T03:41:19.585Z,29.27
2019-04-20T03:43:41.786Z,30.03
2019-04-20T03:46:15.559Z,31.97
2019-04-20T03:48:59.800Z,31.43
2019-04-20T03:51:43.288Z,30.70
2019-04-20T03:54:20.209Z,27.60
2019-04-20T03:57:31.103Z,31.33
2019-04-20T04:00:05.069Z,28.10
2019-04-20T04:03:08.453Z,29.60
2019-04-20T04:05:32.371Z,30.80
2019-04-20T04:07:58.173Z,30.40
2019-04-20T04:10:31.446Z,29.23
2019-04-20T04:13:07.288Z,28.27
2019-04-20T04:15:47.871Z,30.93
2019-04-20T04:18:17.718Z,32.90
2019-04-20T04:20:51.538Z,32.90
2019-04-20T04:23:35.604Z,32.77
2019-04-20T04:26:22.001Z,37.40
2019-04-20T04:28:37.255Z,26.73
2019-04-20T04:31:11.910Z,32.83
2019-04-20T04:36:10.548Z,30.33
2019-04-20T04:38:51.356Z,27.10
2019-04-20T04:41:22.905Z,28.90
2019-04-20T04:43:49.512Z,30.93
2019-04-20T04:46:03.887Z,29.60
2019-04-20T04:48:40.151Z,28.33
2019-04-20T04:51:13.952Z,33.97
2019-04-20T04:53:47.577Z,33.90
2019-04-20T04:56:14.938Z,28.07
2019-04-20T04:58:42.610Z,29.17
2019-04-20T05:01:18.489Z,31.27
2019-04-20T05:04:12.757Z,38.57
2019-04-20T05:06:33.124Z,30.83
2019-04-20T05:08:56.822Z,31.07
2019-04-20T05:11:23.880Z,29.80
2019-04-20T05:14:00.528Z,30.50
2019-04-20T05:16:46.288Z,37.33
2019-04-20T05:19:19.584Z,30.73
2019-04-20T05:22:10.409Z,34.15
2019-04-20T05:25:09.161Z,30.90
2019-04-20T05:27:52.534Z,33.47
2019-04-20T05:30:07.840Z,32.77
2019-04-20T05:32:48.036Z,30.77
2019-04-20T05:35:31.062Z,31.60
2019-04-20T05:38:07.051Z,29.93
2019-04-20T05:40:32.691Z,32.23
2019-04-20T05:43:36.269Z,29.50
2019-04-20T05:46:16.974Z,29.47
2019-04-20T05:48:47.638Z,30.00
2019-04-20T05:51:26.907Z,29.67
2019-04-20T05:53:50.037Z,28.97
2019-04-20T05:56:26.557Z,27.30
2019-04-20T05:58:50.178Z,26.47
2019-04-20T06:01:25.040Z,26.93
2019-04-20T06:03:55.647Z,28.17
2019-04-20T06:06:27.624Z,32.27
2019-04-20T06:09:05.523Z,32.03
2019-04-20T06:11:35.230Z,33.03
2019-04-20T06:14:10.212Z,30.43
2019-04-20T06:17:04.750Z,28.90
2019-04-20T06:19:44.203Z,27.93
2019-04-20T06:22:21.649Z,28.33
2019-04-20T06:27:52.791Z,27.73
2019-04-20T06:30:19.128Z,28.87
2019-04-20T06:33:18.942Z,27.13
2019-04-20T06:36:05.520Z,29.00
2019-04-20T06:38:38.065Z,29.90
2019-04-20T06:40:59.508Z,26.03
2019-04-20T06:43:19.248Z,30.40
2019-04-20T06:46:01.938Z,28.63
2019-04-20T06:48:31.622Z,30.57
2019-04-20T06:50:53.062Z,26.23
2019-04-20T06:53:37.543Z,23.97
2019-04-20T06:56:14.157Z,30.40
2019-04-20T06:59:02.238Z,26.00
2019-04-20T07:01:11.078Z,27.43
2019-04-20T07:04:18.393Z,26.90
2019-04-20T07:06:38.346Z,29.37
2019-04-20T07:08:58.808Z,25.63
2019-04-20T07:11:23.922Z,25.63
2019-04-20T07:13:44.521Z,24.60
2019-04-20T07:16:36.322Z,28.23
2019-04-20T07:19:16.803Z,26.93
2019-04-20T07:22:36.127Z,27.10
2019-04-20T07:25:12.784Z,25.70
2019-04-20T07:27:22.587Z,23.30
2019-04-20T07:30:09.451Z,24.77
2019-04-20T07:32:17.879Z,22.30
2019-04-20T07:35:03.330Z,24.98
2019-04-20T07:38:08.685Z,26.77
2019-04-20T07:40:07.453Z,22.30
2019-04-20T07:42:43.762Z,29.60
2019-04-20T07:45:18.193Z,23.03
2019-04-20T07:47:47.736Z,25.87
2019-04-20T07:50:07.514Z,24.73
2019-04-20T07:52:38.654Z,25.27
2019-04-20T07:55:33.640Z,25.53
2019-04-20T07:57:43.646Z,21.77
2019-04-20T08:00:27.877Z,22.63
2019-04-20T08:03:16.348Z,21.47
2019-04-20T08:05:48.485Z,21.17
2019-04-20T08:08:37.657Z,21.90
2019-04-20T08:10:58.644Z,23.17
2019-04-20T08:16:08.442Z,30.80
2019-04-20T08:18:40.033Z,23.43
2019-04-20T08:21:10.100Z,21.73
2019-04-20T08:23:40.285Z,21.60
2019-04-20T08:26:01.722Z,22.70
2019-04-20T08:28:35.998Z,20.30
2019-04-20T08:31:26.897Z,23.40
2019-04-20T08:34:13.640Z,22.70
2019-04-20T08:36:39.166Z,21.70
2019-04-20T08:39:26.878Z,23.30
2019-04-20T08:41:48.777Z,20.20
2019-04-20T08:44:36.907Z,19.07
2019-04-20T08:47:00.279Z,19.93
2019-04-20T08:49:26.272Z,23.10
2019-04-20T08:51:55.714Z,22.77
2019-04-20T08:54:17.005Z,21.77
2019-04-20T08:56:41.539Z,22.50
2019-04-20T08:59:03.989Z,18.63
2019-04-20T09:01:37.094Z,20.17
2019-04-20T09:04:13.364Z,19.00
2019-04-20T09:06:53.338Z,22.13
2019-04-20T09:09:37.817Z,17.77
2019-04-20T09:12:05.272Z,18.97
2019-04-20T09:14:21.402Z,17.97
2019-04-20T09:17:07.963Z,16.07
2019-04-20T09:19:45.352Z,18.87
2019-04-20T09:22:33.163Z,18.80
2019-04-20T09:25:40.603Z,17.37
2019-04-20T09:27:36.216Z,21.23
2019-04-20T09:30:14.941Z,18.60
2019-04-20T09:32:51.738Z,18.03
2019-04-20T09:35:25.367Z,17.87
2019-04-20T09:38:01.715Z,16.00
2019-04-20T09:40:42.974Z,16.97
2019-04-20T09:43:10.868Z,15.30
2019-04-20T09:45:48.558Z,18.13
2019-04-20T09:48:26.259Z,22.40
2019-04-20T09:51:12.700Z,14.03
2019-04-20T09:53:33.652Z,18.10
2019-04-20T09:56:14.616Z,21.13
2019-04-20T09:58:50.880Z,24.10
2019-04-20T10:01:13.242Z,17.05
2019-04-20T10:03:31.808Z,13.70
2019-04-20T10:06:01.610Z,14.80
2019-04-20T10:08:34.001Z,14.55
2019-04-20T10:11:03.581Z,12.88
2019-04-20T10:13:34.339Z,14.10
2019-04-20T10:16:05.871Z,14.03
2019-04-20T10:18:41.386Z,11.97
2019-04-20T10:21:07.559Z,16.05
2019-04-20T10:23:38.639Z,12.47
2019-04-20T10:26:08.878Z,13.72
2019-04-20T10:28:39.498Z,17.90
2019-04-20T10:31:10.694Z,10.90
2019-04-20T10:33:41.747Z,11.28
2019-04-20T10:36:23.646Z,10.93
2019-04-20T10:38:54.779Z,10.75
2019-04-20T10:41:37.278Z,11.97
2019-04-20T10:43:58.811Z,9.55
2019-04-20T10:46:28.944Z,11.17
2019-04-20T10:49:04.009Z,12.93
2019-04-20T10:51:31.452Z,11.12
2019-04-20T10:54:02.476Z,8.98
2019-04-20T10:56:33.737Z,9.73
2019-04-20T10:59:03.615Z,10.45
2019-04-20T11:01:33.756Z,11.48
2019-04-20T11:04:04.897Z,12.20
2019-04-20T11:06:36.474Z,9.68
2019-04-20T11:09:08.887Z,9.53
2019-04-20T11:11:41.207Z,8.88
2019-04-20T11:14:19.025Z,9.70
2019-04-20T11:16:44.399Z,7.78
2019-04-20T11:19:15.562Z,6.67
2019-04-20T11:21:46.372Z,10.35
2019-04-20T11:24:18.119Z,9.33
2019-04-20T11:26:50.271Z,11.55
2019-04-20T11:29:22.014Z,8.43
2019-04-20T11:31:55.655Z,10.45
2019-04-20T11:34:28.560Z,8.33
2019-04-20T11:36:57.229Z,9.03
2019-04-20T11:39:29.127Z,10.65
2019-04-20T11:41:59.514Z,7.95
2019-04-20T11:44:31.449Z,14.13
2019-04-20T11:47:02.901Z,10.90
2019-04-20T11:49:33.379Z,10.53
2019-04-20T11:52:03.896Z,8.70
2019-04-20T11:54:34.582Z,12.70
2019-04-20T11:57:04.923Z,11.20
2019-04-20T11:59:35.409Z,10.60
2019-04-20T12:02:42.610Z,11.70
2019-04-20T12:05:21.268Z,11.60
2019-04-20T12:08:00.831Z,11.80
2019-04-20T12:10:33.054Z,12.13
2019-04-20T12:13:03.814Z,10.32
2019-04-20T12:15:36.836Z,12.25
2019-04-20T12:18:07.355Z,12.33
2019-04-20T12:20:38.961Z,10.63
2019-04-20T12:23:10.569Z,10.00
2019-04-20T12:25:41.428Z,14.45
2019-04-20T12:28:13.682Z,11.53
2019-04-20T12:30:45.945Z,10.23
2019-04-20T12:33:15.909Z,11.90
2019-04-20T12:35:46.248Z,15.00
2019-04-20T12:38:17.109Z,12.80
2019-04-20T12:40:48.323Z,17.57
2019-04-20T12:43:19.103Z,14.47
2019-04-20T12:45:51.698Z,13.40
2019-04-20T12:48:22.191Z,15.35
2019-04-20T12:50:53.220Z,14.73
2019-04-20T12:53:26.521Z,17.20
2019-04-20T12:55:57.086Z,12.35
2019-04-20T12:58:26.844Z,12.85
2019-04-20T13:00:58.363Z,15.63
2019-04-20T13:03:29.629Z,13.43
2019-04-20T13:06:01.707Z,13.32
2019-04-20T13:08:38.071Z,16.57
2019-04-20T13:11:16.278Z,16.10
2019-04-20T13:14:16.550Z,77.27
2019-04-20T13:16:49.049Z,14.20
2019-04-20T13:19:19.354Z,14.23
2019-04-20T13:21:49.887Z,11.80
2019-04-20T13:24:20.913Z,16.35
2019-04-20T13:26:51.385Z,11.18
2019-04-20T13:29:22.708Z,11.85
2019-04-20T13:31:53.724Z,11.40
2019-04-20T13:34:24.561Z,11.03
2019-04-20T13:36:54.339Z,12.35
2019-04-20T13:39:24.845Z,11.03
2019-04-20T13:42:03.542Z,10.63
2019-04-20T13:44:27.496Z,13.00
2019-04-20T13:46:58.812Z,11.75
2019-04-20T13:49:29.134Z,12.25
2019-04-20T13:51:59.120Z,10.60
2019-04-20T13:54:32.053Z,11.57
2019-04-20T13:57:03.718Z,13.08
2019-04-20T13:59:39.870Z,10.88
2019-04-20T14:02:31.772Z,12.88
2019-04-20T14:05:04.877Z,10.00
2019-04-20T14:07:37.451Z,7.92
2019-04-20T14:10:09.189Z,11.12
2019-04-20T14:12:53.352Z,12.58
2019-04-20T14:15:11.616Z,10.30
2019-04-20T14:17:43.321Z,14.43
2019-04-20T14:20:16.796Z,12.98
2019-04-20T14:22:45.507Z,10.60
2019-04-20T14:25:15.460Z,10.70
2019-04-20T14:27:46.655Z,9.00
2019-04-20T14:30:17.479Z,12.05
2019-04-20T14:32:48.196Z,11.53
2019-04-20T14:35:20.808Z,15.98
2019-04-20T14:37:54.001Z,10.72
2019-04-20T14:40:24.551Z,10.08
2019-04-20T14:42:56.988Z,9.93
2019-04-20T14:45:28.644Z,11.23
2019-04-20T14:47:59.539Z,8.50
2019-04-20T14:50:30.208Z,13.50
2019-04-20T14:53:01.815Z,12.58
2019-04-20T14:55:31.611Z,9.47
2019-04-20T14:58:07.891Z,14.70
2019-04-20T15:00:53.079Z,11.10
2019-04-20T15:03:30.571Z,10.00
2019-04-20T15:06:03.124Z,8.30
2019-04-20T15:08:32.524Z,10.30
2019-04-20T15:11:05.182Z,11.43
2019-04-20T15:13:35.771Z,10.90
2019-04-20T15:16:06.764Z,9.65
2019-04-20T15:18:41.880Z,8.88
2019-04-20T15:21:15.406Z,10.78
2019-04-20T15:23:45.889Z,9.20
2019-04-20T15:26:16.328Z,9.70
2019-04-20T15:28:48.229Z,10.60
2019-04-20T15:31:20.413Z,10.32
2019-04-20T15:33:50.937Z,10.38
2019-04-20T15:36:22.075Z,8.85
2019-04-20T15:38:53.353Z,11.63
2019-04-20T15:41:27.470Z,13.07
2019-04-20T15:43:59.402Z,9.83
2019-04-20T15:46:31.727Z,12.35
2019-04-20T15:49:01.993Z,9.28
2019-04-20T15:51:32.450Z,11.03
2019-04-20T15:54:02.232Z,11.18
2019-04-20T15:56:33.205Z,10.88
2019-04-20T15:59:04.334Z,9.45
2019-04-20T16:01:41.179Z,7.92
2019-04-20T16:04:34.319Z,11.15
2019-04-20T16:07:03.373Z,13.15
2019-04-20T16:09:33.933Z,10.65
2019-04-20T16:12:04.731Z,8.83
2019-04-20T16:14:35.523Z,9.53
2019-04-20T16:17:08.402Z,8.43
2019-04-20T16:19:46.131Z,12.55
2019-04-20T16:22:10.370Z,8.60
2019-04-20T16:24:46.844Z,8.58
2019-04-20T16:27:37.904Z,8.23
2019-04-20T16:30:11.569Z,5.72
2019-04-20T16:32:42.745Z,9.30
2019-04-20T16:35:12.618Z,8.90
2019-04-20T16:37:44.319Z,6.30
2019-04-20T16:40:15.599Z,9.00
2019-04-20T16:42:46.215Z,6.65
2019-04-20T16:45:17.254Z,7.70
2019-04-20T16:47:48.243Z,4.40
2019-04-20T16:50:19.318Z,5.33
2019-04-20T16:52:50.813Z,5.80
2019-04-20T16:55:22.932Z,4.53
2019-04-20T16:57:53.435Z,5.47
2019-04-20T17:00:23.584Z,6.23
2019-04-20T17:02:54.367Z,5.23
2019-04-20T17:05:25.561Z,5.77
2019-04-20T17:07:57.386Z,6.13
2019-04-20T17:10:28.850Z,5.40
2019-04-20T17:12:59.906Z,5.97
2019-04-20T17:15:31.702Z,5.80
2019-04-20T17:18:01.633Z,5.77
2019-04-20T17:20:32.742Z,4.33
2019-04-20T17:23:06.601Z,5.87
2019-04-20T17:25:34.976Z,4.45
2019-04-20T17:28:29.032Z,7.83
2019-04-20T17:31:05.057Z,4.73
2019-04-20T17:33:53.419Z,6.57
2019-04-20T17:36:19.759Z,6.87
2019-04-20T17:38:52.018Z,6.27
2019-04-20T17:41:38.681Z,5.20
2019-04-20T17:44:05.867Z,6.10
2019-04-20T17:46:36.763Z,6.70
2019-04-20T17:49:09.655Z,11.13
2019-04-20T17:51:49.111Z,8.47
2019-04-20T17:54:22.314Z,6.43
2019-04-20T17:56:53.970Z,6.00
2019-04-20T17:59:24.347Z,9.10
2019-04-20T18:02:25.516Z,6.07
2019-04-20T18:07:50.718Z,9.40
2019-04-20T18:10:17.253Z,7.77
2019-04-20T18:12:40.936Z,8.47
2019-04-20T18:15:23.090Z,6.83
2019-04-20T18:18:24.500Z,5.93
2019-04-20T18:20:45.024Z,8.20
2019-04-20T18:23:16.245Z,6.90
2019-04-20T18:26:10.784Z,11.00
2019-04-20T18:28:32.899Z,7.50
2019-04-20T18:31:03.454Z,6.70
2019-04-20T18:33:34.929Z,8.43
2019-04-20T18:36:03.454Z,6.30
2019-04-20T18:38:38.874Z,6.40
2019-04-20T18:41:09.341Z,7.73
2019-04-20T18:43:43.869Z,5.37
2019-04-20T18:46:22.865Z,6.03
2019-04-20T18:49:01.347Z,9.07
2019-04-20T18:51:12.091Z,7.47
2019-04-20T18:53:46.360Z,9.03
2019-04-20T18:56:17.887Z,6.17
2019-04-20T18:58:46.935Z,6.97
2019-04-20T19:01:17.511Z,8.03
2019-04-20T19:03:48.933Z,8.00
2019-04-20T19:06:21.094Z,7.37
2019-04-20T19:08:52.532Z,7.17
2019-04-20T19:11:24.983Z,11.50
2019-04-20T19:14:18.232Z,7.27
2019-04-20T19:17:00.658Z,8.87
2019-04-20T19:19:33.124Z,9.17
2019-04-20T19:21:56.106Z,8.97
2019-04-20T19:24:30.966Z,11.07
2019-04-20T19:27:03.553Z,7.47
2019-04-20T19:29:38.759Z,10.30
2019-04-20T19:32:19.539Z,9.10
2019-04-20T19:34:48.825Z,10.97
2019-04-20T19:37:15.783Z,10.97
2019-04-20T19:39:50.668Z,11.57
2019-04-20T19:42:19.830Z,12.03
2019-04-20T19:44:53.837Z,12.43
2019-04-20T19:47:35.050Z,13.33
2019-04-20T19:49:56.165Z,12.40
2019-04-20T19:52:36.866Z,15.97
2019-04-20T19:55:02.455Z,14.40
2019-04-20T19:57:40.060Z,13.17
2019-04-20T19:59:52.644Z,12.27
2019-04-20T20:02:21.486Z,13.07
2019-04-20T20:04:58.418Z,13.47
2019-04-20T20:07:31.048Z,12.87
2019-04-20T20:09:59.507Z,14.23
2019-04-20T20:12:25.608Z,15.20
2019-04-20T20:14:57.301Z,12.43
2019-04-20T20:17:52.795Z,16.77
2019-04-20T20:20:32.393Z,14.23
2019-04-20T20:22:38.911Z,12.57
2019-04-20T20:25:05.314Z,14.97
2019-04-20T20:27:43.789Z,14.40
2019-04-20T20:30:18.742Z,13.93
2019-04-20T20:32:56.546Z,19.53
2019-04-20T20:35:20.488Z,20.17
2019-04-20T20:37:50.133Z,16.93
2019-04-20T20:40:24.575Z,21.97
2019-04-20T20:43:02.925Z,21.80
2019-04-20T20:45:29.624Z,20.27
2019-04-20T20:48:12.081Z,24.20
2019-04-20T20:50:42.678Z,21.77
2019-04-20T20:53:05.067Z,23.50
2019-04-20T20:55:35.527Z,23.70
2019-04-20T20:58:08.300Z,22.57
2019-04-20T21:00:43.287Z,24.70
2019-04-20T21:03:06.028Z,24.83
2019-04-20T21:05:35.695Z,25.60
2019-04-20T21:08:06.059Z,22.83
2019-04-20T21:10:42.348Z,25.67
2019-04-20T21:13:13.877Z,24.87
2019-04-20T21:15:47.375Z,26.13
2019-04-20T21:18:37.855Z,26.20
2019-04-20T21:21:04.564Z,27.83
2019-04-20T21:23:32.658Z,25.47
2019-04-20T21:26:22.880Z,29.93
2019-04-20T21:28:41.994Z,27.47
2019-04-20T21:31:16.829Z,28.03
2019-04-20T21:33:44.814Z,33.00
2019-04-20T21:36:19.729Z,28.73
2019-04-20T21:38:48.642Z,26.27
2019-04-20T21:41:22.053Z,29.57
2019-04-20T21:43:51.902Z,28.50
2019-04-20T21:46:22.832Z,32.60
2019-04-20T21:49:05.602Z,34.10
2019-04-20T21:51:37.292Z,31.93
2019-04-20T21:53:58.723Z,28.67
2019-04-20T21:56:30.017Z,32.97
2019-04-20T21:59:04.090Z,28.97
2019-04-20T22:01:39.278Z,30.97
2019-04-20T22:04:03.817Z,32.77
2019-04-20T22:06:34.325Z,31.80
2019-04-20T22:09:09.095Z,35.40
2019-04-20T22:11:39.976Z,35.27
2019-04-20T22:14:17.326Z,32.67
2019-04-20T22:16:48.150Z,32.13
2019-04-20T22:19:27.500Z,32.67
2019-04-20T22:21:58.756Z,28.60
2019-04-20T22:24:33.100Z,31.87
2019-04-20T22:27:00.055Z,28.30
2019-04-20T22:29:21.507Z,32.57
2019-04-20T22:31:57.400Z,33.27
2019-04-20T22:34:26.072Z,29.00
2019-04-20T22:36:56.043Z,34.33
2019-04-20T22:39:34.727Z,29.00
2019-04-20T22:42:07.353Z,28.80
2019-04-20T22:44:34.443Z,28.53
2019-04-20T22:47:12.290Z,29.90
2019-04-20T22:49:48.198Z,34.23
2019-04-20T22:52:26.545Z,25.90
2019-04-20T22:54:54.362Z,28.53
2019-04-20T22:57:29.753Z,30.93
2019-04-20T22:59:52.406Z,28.83
2019-04-20T23:02:16.455Z,29.47
2019-04-20T23:04:46.765Z,30.70
2019-04-20T23:07:17.115Z,28.83
2019-04-20T23:09:52.881Z,31.23
2019-04-20T23:12:22.997Z,30.07
2019-04-20T23:14:50.274Z,29.80
2019-04-20T23:17:29.510Z,30.30
2019-04-20T23:19:56.204Z,31.03
2019-04-20T23:22:33.625Z,32.83
2019-04-20T23:24:57.465Z,29.77
2019-04-20T23:27:31.302Z,30.97
2019-04-20T23:30:05.119Z,31.97
2019-04-20T23:32:32.012Z,31.47
2019-04-20T23:35:08.311Z,34.87
2019-04-20T23:37:36.984Z,27.50
2019-04-20T23:40:10.074Z,32.03
2019-04-20T23:42:45.782Z,30.60
2019-04-20T23:45:38.655Z,29.75
2019-04-20T23:48:12.169Z,37.90
2019-04-20T23:51:01.182Z,34.93
2019-04-20T23:53:33.850Z,31.93
2019-04-20T23:55:47.793Z,32.47
2019-04-20T23:58:19.425Z,35.00
